Terminal Aerodrome Forecast
Issued by NWS Goodland, KS

Home | Current Version | Previous Version | Text Only | Print | Product List | Glossary On
Versions: 1 2 3 4 5 6 7 8 9 10 11 12 13 14 15 16 17 18 19 20 21 22 23 24 25 26
398
FTUS43 KGLD 302108 AAA
TAFGLD
TAF AMD
KGLD 302108Z 3021/0118 01020G24KT P6SM OVC060
     FM010100 34013KT P6SM BKN090
     FM010300 33011KT P6SM SCT250
     FM010500 30010KT P6SM FEW250=

USA.gov is the U.S. government's official web portal to all federal, state and local government web resources and services.